Afrodite — CURM3 — position and weather

sailwx.info

Track history (hours):
 
Tides and Currents Weather Stations Pressure Air Temp Water Temp Dewpoint Dewpoint Depression Visibility Wind Speed Wind Dir Waves Ship Positions

Afrodite

Last reported at 2017-May-24 23:55 UTC. Time now 2017-May-25 03:11 UTC.
Position N 39°21' W 009°22'.

Length 26 m.

Type: Fishing. MMSI: 263500170.

Date/timePositionNaut miles runAvg speedWind from/ knotsBaromVisibWave heightAir tempDewpointWater temp
2017-May-24 23:55N 39°21' W 009°22'0 0.0
2017-May-24 23:30N 39°21' W 009°22'0 0.0
2017-May-24 22:43N 39°21' W 009°22'0 0.0
2017-May-24 22:17N 39°21' W 009°22'0 0.0
2017-May-24 21:59N 39°21' W 009°22'0 0.0
2017-May-24 20:16N 39°21' W 009°22'0 0.0
2017-May-24 20:00N 39°21' W 009°22'0 0.0
2017-May-24 19:30N 39°21' W 009°22'0 0.0
2017-May-24 19:00N 39°21' W 009°22'2 4.8
2017-May-24 18:30N 39°22' W 009°25'610.5
2017-May-24 17:57N 39°26' W 009°30'2 4.0
2017-May-24 17:30N 39°28' W 009°32'1 1.1
2017-May-24 17:00N 39°27' W 009°32'1 1.2
2017-May-24 16:30N 39°27' W 009°33'4 7.2
2017-May-24 16:00N 39°25' W 009°37'5 8.9
2017-May-24 15:29N 39°28' W 009°32'0 0.9
2017-May-24 14:58N 39°28' W 009°33'0 0.3
2017-May-24 14:30N 39°28' W 009°33'9 6.9
2017-May-24 13:09N 39°21' W 009°24'1 7.9
2017-May-24 13:00N 39°21' W 009°22'0 0.6
2017-May-24 12:30N 39°21' W 009°22'0 0.0
2017-May-24 00:42N 39°21' W 009°22'0 0.0
2017-May-24 00:31N 39°21' W 009°22'0 0.0
2017-May-24 00:00N 39°21' W 009°22'0 0.0
2017-May-23 23:30N 39°21' W 009°22'0 0.0
2017-May-23 23:00N 39°21' W 009°22'0 0.0
2017-May-23 22:30N 39°21' W 009°22'2 3.2
2017-May-23 22:00N 39°21' W 009°24'4 8.7
2017-May-23 21:30N 39°25' W 009°27'0 0.9
2017-May-23 20:59N 39°25' W 009°27'0 0.7
2017-May-23 20:29N 39°25' W 009°27'1 1.9
2017-May-23 20:00N 39°26' W 009°28'1 1.2
2017-May-23 19:30N 39°25' W 009°29'4 7.1
2017-May-23 19:00N 39°23' W 009°26'3 6.6
2017-May-23 18:31N 39°21' W 009°22'0 0.0
2017-May-23 18:00N 39°21' W 009°22'0 0.0
2017-May-23 17:30N 39°21' W 009°22'0 0.0
2017-May-23 17:00N 39°21' W 009°22'4 7.3
2017-May-23 16:30N 39°19' W 009°26'1 1.2
2017-May-23 16:00N 39°19' W 009°27'0 0.6
2017-May-23 15:30N 39°19' W 009°26'2 3.9
2017-May-23 15:00N 39°17' W 009°26'5 9.2
2017-May-23 14:30N 39°12' W 009°24'4 3.9
2017-May-23 13:22N 39°17' W 009°22'5 9.4
2017-May-23 12:52N 39°21' W 009°22'0 0.0
2017-May-22 23:19N 39°21' W 009°22'0 0.0
2017-May-22 22:57N 39°21' W 009°22'4 4.2
2017-May-22 22:02N 39°18' W 009°24'2 9.0
2017-May-22 21:49N 39°16' W 009°24'3 8.7
2017-May-22 21:26N 39°13' W 009°26'0 0.8
2017-May-22 21:00N 39°13' W 009°26'0 0.2
2017-May-22 20:30N 39°13' W 009°26'0 0.5
2017-May-22 20:00N 39°13' W 009°26'2 3.9
2017-May-22 19:26N 39°12' W 009°23'2 5.8
2017-May-22 19:00N 39°10' W 009°23'3 6.1
2017-May-22 18:30N 39°12' W 009°25'0 0.3
2017-May-22 18:00N 39°12' W 009°25'0 0.7
2017-May-22 17:30N 39°12' W 009°25'1 1.6
2017-May-22 16:58N 39°12' W 009°24'3 6.5
2017-May-22 16:30N 39°09' W 009°23'3 4.7
2017-May-22 15:51N 39°12' W 009°24'1 2.6
2017-May-22 15:22N 39°12' W 009°23'1 3.2
2017-May-22 15:00N 39°13' W 009°22'0 0.3
2017-May-22 14:00N 39°13' W 009°22'9 7.7
2017-May-22 12:53N 39°21' W 009°22'0 0.0
2017-May-22 12:30N 39°21' W 009°22'  
2017-May-19 18:09N 39°21' W 009°22'0 0.0
2017-May-19 17:50N 39°21' W 009°22'0 0.0
2017-May-19 17:26N 39°21' W 009°22'4 8.2
2017-May-19 16:54N 39°17' W 009°23'4 9.0
2017-May-19 16:30N 39°13' W 009°23'2 4.2
2017-May-19 16:00N 39°11' W 009°23'0 0.6
2017-May-19 15:30N 39°12' W 009°23'1 1.3
2017-May-19 15:00N 39°11' W 009°23'1 0.7
2017-May-19 14:00N 39°12' W 009°23'10 8.6
2017-May-19 12:53N 39°21' W 009°22'0 0.0
2017-May-19 12:30N 39°21' W 009°22'0 0.0
2017-May-18 17:09N 39°21' W 009°22'0 0.0
2017-May-18 16:55N 39°21' W 009°22'0 0.0
2017-May-18 16:30N 39°21' W 009°22'4 5.8
2017-May-18 15:47N 39°17' W 009°23'2 8.5
2017-May-18 15:30N 39°15' W 009°23'4 8.0
2017-May-18 15:01N 39°11' W 009°24'0 0.7
2017-May-18 14:27N 39°11' W 009°23'10 0.5
2017-May-17 16:35N 39°21' W 009°22'0 0.0
2017-May-16 22:37N 39°21' W 009°22'0 0.0
2017-May-16 22:28N 39°21' W 009°22'0 0.0
2017-May-16 21:52N 39°21' W 009°22'5 4.9
2017-May-16 20:55N 39°24' W 009°27'3 5.5
2017-May-16 20:26N 39°26' W 009°29'0 0.3
2017-May-16 19:48N 39°26' W 009°29'0 0.3
2017-May-16 19:27N 39°26' W 009°29'2 1.9
2017-May-16 18:20N 39°25' W 009°30'1 2.6
2017-May-16 18:00N 39°24' W 009°30'0 0.7
2017-May-16 17:17N 39°24' W 009°29'1 2.1
2017-May-16 16:55N 39°23' W 009°30'0 0.4
2017-May-16 16:19N 39°23' W 009°29'0 0.7
2017-May-16 15:59N 39°23' W 009°29'3 5.7
2017-May-16 15:30N 39°21' W 009°28'5 9.2
2017-May-16 15:00N 39°17' W 009°26'5 9.0
2017-May-16 14:30N 39°12' W 009°24'4 3.6
2017-May-16 13:30N 39°16' W 009°23'510.5
2017-May-16 13:00N 39°21' W 009°22'1 1.0
2017-May-16 12:26N 39°21' W 009°22'0 0.0
2017-May-15 22:32N 39°21' W 009°22'0 0.0
2017-May-15 22:30N 39°21' W 009°22'0 0.0
2017-May-15 21:48N 39°21' W 009°22'0 0.0
2017-May-15 21:28N 39°21' W 009°22'2 4.8
2017-May-15 21:00N 39°21' W 009°25'4 2.1
2017-May-15 19:16N 39°24' W 009°28'5 7.4
2017-May-15 18:32N 39°21' W 009°22'0 0.0
2017-May-15 18:30N 39°21' W 009°22'0 0.0
2017-May-15 18:00N 39°21' W 009°22'0 0.0
2017-May-15 17:31N 39°21' W 009°22'0 0.4
2017-May-15 17:00N 39°21' W 009°22'5 9.9
2017-May-15 16:30N 39°16' W 009°22'4 8.8
2017-May-15 16:00N 39°12' W 009°22'0 0.2
2017-May-15 15:30N 39°12' W 009°22'0 1.0
2017-May-15 15:00N 39°11' W 009°23'1 0.5
2017-May-15 14:01N 39°12' W 009°23'4 8.1
2017-May-15 13:30N 39°16' W 009°23'510.2
2017-May-15 13:00N 39°21' W 009°23'  
Track history (hours):
 
Tides and Currents Weather Stations Pressure Air Temp Water Temp Dewpoint Dewpoint Depression Visibility Wind Speed Wind Dir Waves Ship Positions

Afrodite

Last reported at 2017-May-24 23:55 UTC. Time now 2017-May-25 03:11 UTC.
Position N 39°21' W 009°22'.

Length 26 m.

Type: Fishing. MMSI: 263500170.

Date/timePositionNaut miles runAvg speedWind from/ knotsBaromVisibWave heightAir tempDewpointWater temp
2017-May-24 23:55N 39°21' W 009°22'0 0.0
2017-May-24 23:30N 39°21' W 009°22'0 0.0
2017-May-24 22:43N 39°21' W 009°22'0 0.0
2017-May-24 22:17N 39°21' W 009°22'0 0.0
2017-May-24 21:59N 39°21' W 009°22'0 0.0
2017-May-24 20:16N 39°21' W 009°22'0 0.0
2017-May-24 20:00N 39°21' W 009°22'0 0.0
2017-May-24 19:30N 39°21' W 009°22'0 0.0
2017-May-24 19:00N 39°21' W 009°22'2 4.8
2017-May-24 18:30N 39°22' W 009°25'610.5
2017-May-24 17:57N 39°26' W 009°30'2 4.0
2017-May-24 17:30N 39°28' W 009°32'1 1.1
2017-May-24 17:00N 39°27' W 009°32'1 1.2
2017-May-24 16:30N 39°27' W 009°33'4 7.2
2017-May-24 16:00N 39°25' W 009°37'5 8.9
2017-May-24 15:29N 39°28' W 009°32'0 0.9
2017-May-24 14:58N 39°28' W 009°33'0 0.3
2017-May-24 14:30N 39°28' W 009°33'9 6.9
2017-May-24 13:09N 39°21' W 009°24'1 7.9
2017-May-24 13:00N 39°21' W 009°22'0 0.6
2017-May-24 12:30N 39°21' W 009°22'0 0.0
2017-May-24 00:42N 39°21' W 009°22'0 0.0
2017-May-24 00:31N 39°21' W 009°22'0 0.0
2017-May-24 00:00N 39°21' W 009°22'0 0.0
2017-May-23 23:30N 39°21' W 009°22'0 0.0
2017-May-23 23:00N 39°21' W 009°22'0 0.0
2017-May-23 22:30N 39°21' W 009°22'2 3.2
2017-May-23 22:00N 39°21' W 009°24'4 8.7
2017-May-23 21:30N 39°25' W 009°27'0 0.9
2017-May-23 20:59N 39°25' W 009°27'0 0.7
2017-May-23 20:29N 39°25' W 009°27'1 1.9
2017-May-23 20:00N 39°26' W 009°28'1 1.2
2017-May-23 19:30N 39°25' W 009°29'4 7.1
2017-May-23 19:00N 39°23' W 009°26'3 6.6
2017-May-23 18:31N 39°21' W 009°22'0 0.0
2017-May-23 18:00N 39°21' W 009°22'0 0.0
2017-May-23 17:30N 39°21' W 009°22'0 0.0
2017-May-23 17:00N 39°21' W 009°22'4 7.3
2017-May-23 16:30N 39°19' W 009°26'1 1.2
2017-May-23 16:00N 39°19' W 009°27'0 0.6
2017-May-23 15:30N 39°19' W 009°26'2 3.9
2017-May-23 15:00N 39°17' W 009°26'5 9.2
2017-May-23 14:30N 39°12' W 009°24'4 3.9
2017-May-23 13:22N 39°17' W 009°22'5 9.4
2017-May-23 12:52N 39°21' W 009°22'0 0.0
2017-May-22 23:19N 39°21' W 009°22'0 0.0
2017-May-22 22:57N 39°21' W 009°22'4 4.2
2017-May-22 22:02N 39°18' W 009°24'2 9.0
2017-May-22 21:49N 39°16' W 009°24'3 8.7
2017-May-22 21:26N 39°13' W 009°26'0 0.8
2017-May-22 21:00N 39°13' W 009°26'0 0.2
2017-May-22 20:30N 39°13' W 009°26'0 0.5
2017-May-22 20:00N 39°13' W 009°26'2 3.9
2017-May-22 19:26N 39°12' W 009°23'2 5.8
2017-May-22 19:00N 39°10' W 009°23'3 6.1
2017-May-22 18:30N 39°12' W 009°25'0 0.3
2017-May-22 18:00N 39°12' W 009°25'0 0.7
2017-May-22 17:30N 39°12' W 009°25'1 1.6
2017-May-22 16:58N 39°12' W 009°24'3 6.5
2017-May-22 16:30N 39°09' W 009°23'3 4.7
2017-May-22 15:51N 39°12' W 009°24'1 2.6
2017-May-22 15:22N 39°12' W 009°23'1 3.2
2017-May-22 15:00N 39°13' W 009°22'0 0.3
2017-May-22 14:00N 39°13' W 009°22'9 7.7
2017-May-22 12:53N 39°21' W 009°22'0 0.0
2017-May-22 12:30N 39°21' W 009°22'  
2017-May-19 18:09N 39°21' W 009°22'0 0.0
2017-May-19 17:50N 39°21' W 009°22'0 0.0
2017-May-19 17:26N 39°21' W 009°22'4 8.2
2017-May-19 16:54N 39°17' W 009°23'4 9.0
2017-May-19 16:30N 39°13' W 009°23'2 4.2
2017-May-19 16:00N 39°11' W 009°23'0 0.6
2017-May-19 15:30N 39°12' W 009°23'1 1.3
2017-May-19 15:00N 39°11' W 009°23'1 0.7
2017-May-19 14:00N 39°12' W 009°23'10 8.6
2017-May-19 12:53N 39°21' W 009°22'0 0.0
2017-May-19 12:30N 39°21' W 009°22'0 0.0
2017-May-18 17:09N 39°21' W 009°22'0 0.0
2017-May-18 16:55N 39°21' W 009°22'0 0.0
2017-May-18 16:30N 39°21' W 009°22'4 5.8
2017-May-18 15:47N 39°17' W 009°23'2 8.5
2017-May-18 15:30N 39°15' W 009°23'4 8.0
2017-May-18 15:01N 39°11' W 009°24'0 0.7
2017-May-18 14:27N 39°11' W 009°23'10 0.5
2017-May-17 16:35N 39°21' W 009°22'0 0.0
2017-May-16 22:37N 39°21' W 009°22'0 0.0
2017-May-16 22:28N 39°21' W 009°22'0 0.0
2017-May-16 21:52N 39°21' W 009°22'5 4.9
2017-May-16 20:55N 39°24' W 009°27'3 5.5
2017-May-16 20:26N 39°26' W 009°29'0 0.3
2017-May-16 19:48N 39°26' W 009°29'0 0.3
2017-May-16 19:27N 39°26' W 009°29'2 1.9
2017-May-16 18:20N 39°25' W 009°30'1 2.6
2017-May-16 18:00N 39°24' W 009°30'0 0.7
2017-May-16 17:17N 39°24' W 009°29'1 2.1
2017-May-16 16:55N 39°23' W 009°30'0 0.4
2017-May-16 16:19N 39°23' W 009°29'0 0.7
2017-May-16 15:59N 39°23' W 009°29'3 5.7
2017-May-16 15:30N 39°21' W 009°28'5 9.2
2017-May-16 15:00N 39°17' W 009°26'5 9.0
2017-May-16 14:30N 39°12' W 009°24'4 3.6
2017-May-16 13:30N 39°16' W 009°23'510.5
2017-May-16 13:00N 39°21' W 009°22'1 1.0
2017-May-16 12:26N 39°21' W 009°22'0 0.0
2017-May-15 22:32N 39°21' W 009°22'0 0.0
2017-May-15 22:30N 39°21' W 009°22'0 0.0
2017-May-15 21:48N 39°21' W 009°22'0 0.0
2017-May-15 21:28N 39°21' W 009°22'2 4.8
2017-May-15 21:00N 39°21' W 009°25'4 2.1
2017-May-15 19:16N 39°24' W 009°28'5 7.4
2017-May-15 18:32N 39°21' W 009°22'0 0.0
2017-May-15 18:30N 39°21' W 009°22'0 0.0
2017-May-15 18:00N 39°21' W 009°22'0 0.0
2017-May-15 17:31N 39°21' W 009°22'0 0.4
2017-May-15 17:00N 39°21' W 009°22'5 9.9
2017-May-15 16:30N 39°16' W 009°22'4 8.8
2017-May-15 16:00N 39°12' W 009°22'0 0.2
2017-May-15 15:30N 39°12' W 009°22'0 1.0
2017-May-15 15:00N 39°11' W 009°23'1 0.5
2017-May-15 14:01N 39°12' W 009°23'4 8.1
2017-May-15 13:30N 39°16' W 009°23'510.2
2017-May-15 13:00N 39°21' W 009°23'  

Dump ship's entire track history